sensor_id;sensor_type;location;lat;lon;timestamp;pressure;altitude;pressure_sealevel;temperature;humidity
46574;BME280;32299;53.366;-1.544;2023-01-27T00:00:17;100561.15;;;4.21;61.95
46574;BME280;32299;53.366;-1.544;2023-01-27T00:02:45;100556.09;;;4.51;59.77
46574;BME280;32299;53.366;-1.544;2023-01-27T00:05:13;100558.36;;;5.00;59.35
46574;BME280;32299;53.366;-1.544;2023-01-27T00:07:42;100562.97;;;3.90;61.49
46574;BME280;32299;53.366;-1.544;2023-01-27T00:10:11;100561.33;;;3.84;63.44
46574;BME280;32299;53.366;-1.544;2023-01-27T00:12:38;100560.65;;;3.69;62.96
46574;BME280;32299;53.366;-1.544;2023-01-27T00:15:06;100553.43;;;4.70;61.61
46574;BME280;32299;53.366;-1.544;2023-01-27T00:17:34;100553.11;;;4.15;62.05
46574;BME280;32299;53.366;-1.544;2023-01-27T00:20:02;100555.08;;;4.93;59.83
46574;BME280;32299;53.366;-1.544;2023-01-27T00:22:29;100555.01;;;4.39;60.70
46574;BME280;32299;53.366;-1.544;2023-01-27T00:24:56;100558.82;;;3.88;62.14
46574;BME280;32299;53.366;-1.544;2023-01-27T00:27:23;100561.52;;;4.41;61.73
46574;BME280;32299;53.366;-1.544;2023-01-27T00:29:50;100550.86;;;4.17;61.36
46574;BME280;32299;53.366;-1.544;2023-01-27T00:32:17;100551.26;;;4.64;61.43
46574;BME280;32299;53.366;-1.544;2023-01-27T00:34:45;100549.23;;;4.97;61.43
46574;BME280;32299;53.366;-1.544;2023-01-27T00:37:12;100556.55;;;3.21;65.96
46574;BME280;32299;53.366;-1.544;2023-01-27T00:39:39;100553.27;;;2.45;67.40
46574;BME280;32299;53.366;-1.544;2023-01-27T00:42:06;100545.72;;;4.07;65.10
46574;BME280;32299;53.366;-1.544;2023-01-27T00:44:34;100549.00;;;3.38;65.67
46574;BME280;32299;53.366;-1.544;2023-01-27T00:47:00;100544.41;;;4.34;64.89
46574;BME280;32299;53.366;-1.544;2023-01-27T00:49:28;100547.08;;;4.19;64.36
46574;BME280;32299;53.366;-1.544;2023-01-27T00:51:55;100545.38;;;4.53;62.99
46574;BME280;32299;53.366;-1.544;2023-01-27T00:54:21;100543.70;;;4.82;61.77
46574;BME280;32299;53.366;-1.544;2023-01-27T00:56:48;100540.86;;;4.83;61.72
46574;BME280;32299;53.366;-1.544;2023-01-27T00:59:15;100546.23;;;3.90;64.12
46574;BME280;32299;53.366;-1.544;2023-01-27T01:01:42;100544.68;;;5.00;60.50
46574;BME280;32299;53.366;-1.544;2023-01-27T01:04:09;100538.03;;;5.08;60.66
46574;BME280;32299;53.366;-1.544;2023-01-27T01:06:36;100530.50;;;4.96;61.02
46574;BME280;32299;53.366;-1.544;2023-01-27T01:09:03;100531.07;;;4.18;62.92
46574;BME280;32299;53.366;-1.544;2023-01-27T01:11:30;100527.71;;;4.80;61.33
46574;BME280;32299;53.366;-1.544;2023-01-27T01:13:57;100522.62;;;4.64;61.60
46574;BME280;32299;53.366;-1.544;2023-01-27T01:16:24;100522.93;;;4.59;59.97
46574;BME280;32299;53.366;-1.544;2023-01-27T01:18:52;100525.92;;;3.82;63.34
46574;BME280;32299;53.366;-1.544;2023-01-27T01:21:19;100528.08;;;3.60;65.68
46574;BME280;32299;53.366;-1.544;2023-01-27T01:23:46;100522.77;;;4.10;64.41
46574;BME280;32299;53.366;-1.544;2023-01-27T01:26:14;100519.91;;;4.60;63.51
46574;BME280;32299;53.366;-1.544;2023-01-27T01:28:43;100514.68;;;4.50;63.91
46574;BME280;32299;53.366;-1.544;2023-01-27T01:31:12;100520.53;;;3.48;66.72
46574;BME280;32299;53.366;-1.544;2023-01-27T01:33:39;100521.98;;;4.40;63.63
46574;BME280;32299;53.366;-1.544;2023-01-27T01:36:09;100516.81;;;4.54;62.50
46574;BME280;32299;53.366;-1.544;2023-01-27T01:38:37;100521.67;;;3.82;64.58
46574;BME280;32299;53.366;-1.544;2023-01-27T01:41:06;100524.94;;;4.27;62.60
46574;BME280;32299;53.366;-1.544;2023-01-27T01:43:34;100530.61;;;3.03;67.06
46574;BME280;32299;53.366;-1.544;2023-01-27T01:46:02;100530.99;;;3.39;66.49
46574;BME280;32299;53.366;-1.544;2023-01-27T01:48:33;100523.20;;;3.84;62.68
46574;BME280;32299;53.366;-1.544;2023-01-27T01:51:06;100518.50;;;4.84;61.86
46574;BME280;32299;53.366;-1.544;2023-01-27T01:53:37;100525.00;;;2.54;68.70
46574;BME280;32299;53.366;-1.544;2023-01-27T01:56:10;100528.47;;;3.68;64.74
46574;BME280;32299;53.366;-1.544;2023-01-27T01:58:39;100522.44;;;4.74;61.99
46574;BME280;32299;53.366;-1.544;2023-01-27T02:01:07;100525.63;;;4.43;62.41
46574;BME280;32299;53.366;-1.544;2023-01-27T02:03:37;100522.64;;;3.82;63.84
46574;BME280;32299;53.366;-1.544;2023-01-27T02:06:06;100520.97;;;4.67;63.16
46574;BME280;32299;53.366;-1.544;2023-01-27T02:08:38;100527.43;;;3.09;67.06
46574;BME280;32299;53.366;-1.544;2023-01-27T02:11:05;100527.24;;;3.13;66.43
46574;BME280;32299;53.366;-1.544;2023-01-27T02:13:34;100538.38;;;2.67;68.25
46574;BME280;32299;53.366;-1.544;2023-01-27T02:16:01;100535.16;;;3.79;66.06
46574;BME280;32299;53.366;-1.544;2023-01-27T02:18:28;100528.70;;;3.70;64.99
46574;BME280;32299;53.366;-1.544;2023-01-27T02:20:56;100527.98;;;3.46;66.69
46574;BME280;32299;53.366;-1.544;2023-01-27T02:23:32;100522.46;;;4.02;64.40
46574;BME280;32299;53.366;-1.544;2023-01-27T02:26:06;100529.40;;;3.62;64.79
46574;BME280;32299;53.366;-1.544;2023-01-27T02:28:36;100526.54;;;4.49;63.36
46574;BME280;32299;53.366;-1.544;2023-01-27T02:31:04;100534.91;;;2.72;69.59
46574;BME280;32299;53.366;-1.544;2023-01-27T02:33:31;100534.07;;;2.92;67.92
46574;BME280;32299;53.366;-1.544;2023-01-27T02:36:01;100531.10;;;3.34;68.33
46574;BME280;32299;53.366;-1.544;2023-01-27T02:38:32;100530.93;;;2.32;70.86
46574;BME280;32299;53.366;-1.544;2023-01-27T02:41:03;100529.81;;;3.69;67.19
46574;BME280;32299;53.366;-1.544;2023-01-27T02:43:32;100519.39;;;4.12;64.82
46574;BME280;32299;53.366;-1.544;2023-01-27T02:45:59;100515.76;;;4.74;62.79
46574;BME280;32299;53.366;-1.544;2023-01-27T02:48:26;100522.46;;;3.80;64.47
46574;BME280;32299;53.366;-1.544;2023-01-27T02:50:53;100511.02;;;4.64;62.47
46574;BME280;32299;53.366;-1.544;2023-01-27T02:53:20;100509.59;;;5.20;61.58
46574;BME280;32299;53.366;-1.544;2023-01-27T02:55:47;100508.07;;;4.13;64.70
46574;BME280;32299;53.366;-1.544;2023-01-27T02:58:14;100503.85;;;4.98;62.07
46574;BME280;32299;53.366;-1.544;2023-01-27T03:00:41;100497.56;;;4.66;62.70
46574;BME280;32299;53.366;-1.544;2023-01-27T03:03:08;100499.09;;;3.81;65.22
46574;BME280;32299;53.366;-1.544;2023-01-27T03:05:35;100498.49;;;4.94;62.75
46574;BME280;32299;53.366;-1.544;2023-01-27T03:08:02;100496.57;;;5.03;62.41
46574;BME280;32299;53.366;-1.544;2023-01-27T03:10:29;100498.99;;;4.67;63.66
46574;BME280;32299;53.366;-1.544;2023-01-27T03:12:56;100499.46;;;3.65;66.41
46574;BME280;32299;53.366;-1.544;2023-01-27T03:15:23;100496.54;;;4.46;63.11
46574;BME280;32299;53.366;-1.544;2023-01-27T03:17:50;100500.04;;;4.94;63.24
46574;BME280;32299;53.366;-1.544;2023-01-27T03:20:17;100502.69;;;3.64;65.99
46574;BME280;32299;53.366;-1.544;2023-01-27T03:22:45;100500.53;;;4.88;63.28
46574;BME280;32299;53.366;-1.544;2023-01-27T03:25:11;100501.26;;;4.92;62.25
46574;BME280;32299;53.366;-1.544;2023-01-27T03:27:39;100502.95;;;4.50;64.92
46574;BME280;32299;53.366;-1.544;2023-01-27T03:30:07;100508.76;;;2.93;68.47
46574;BME280;32299;53.366;-1.544;2023-01-27T03:32:35;100496.13;;;4.37;65.33
46574;BME280;32299;53.366;-1.544;2023-01-27T03:35:03;100500.26;;;3.31;68.47
46574;BME280;32299;53.366;-1.544;2023-01-27T03:37:31;100501.04;;;3.71;67.48
46574;BME280;32299;53.366;-1.544;2023-01-27T03:39:58;100503.51;;;3.59;68.93
46574;BME280;32299;53.366;-1.544;2023-01-27T03:42:25;100503.70;;;3.75;67.51
46574;BME280;32299;53.366;-1.544;2023-01-27T03:44:52;100503.32;;;4.13;66.06
46574;BME280;32299;53.366;-1.544;2023-01-27T03:47:19;100499.14;;;4.70;64.19
46574;BME280;32299;53.366;-1.544;2023-01-27T03:49:46;100500.38;;;4.46;65.31
46574;BME280;32299;53.366;-1.544;2023-01-27T03:52:13;100504.58;;;4.29;65.27
46574;BME280;32299;53.366;-1.544;2023-01-27T03:54:40;100502.14;;;4.49;64.65
46574;BME280;32299;53.366;-1.544;2023-01-27T03:57:07;100504.97;;;3.83;66.90
46574;BME280;32299;53.366;-1.544;2023-01-27T03:59:34;100511.92;;;3.35;68.08
46574;BME280;32299;53.366;-1.544;2023-01-27T04:02:01;100511.84;;;3.58;68.23
46574;BME280;32299;53.366;-1.544;2023-01-27T04:04:29;100509.43;;;4.74;64.42
46574;BME280;32299;53.366;-1.544;2023-01-27T04:06:56;100510.52;;;3.19;68.36
46574;BME280;32299;53.366;-1.544;2023-01-27T04:09:24;100507.22;;;3.79;66.43
46574;BME280;32299;53.366;-1.544;2023-01-27T04:11:52;100504.83;;;4.43;64.07
46574;BME280;32299;53.366;-1.544;2023-01-27T04:14:20;100502.86;;;5.01;62.88
46574;BME280;32299;53.366;-1.544;2023-01-27T04:16:47;100503.93;;;4.99;63.06
46574;BME280;32299;53.366;-1.544;2023-01-27T04:19:14;100504.94;;;4.56;64.48
46574;BME280;32299;53.366;-1.544;2023-01-27T04:21:41;100507.27;;;4.00;66.02
46574;BME280;32299;53.366;-1.544;2023-01-27T04:24:10;100508.87;;;2.94;70.09
46574;BME280;32299;53.366;-1.544;2023-01-27T04:26:37;100499.28;;;4.07;66.22
46574;BME280;32299;53.366;-1.544;2023-01-27T04:29:04;100503.84;;;2.96;71.05
46574;BME280;32299;53.366;-1.544;2023-01-27T04:31:32;100504.20;;;3.47;68.30
46574;BME280;32299;53.366;-1.544;2023-01-27T04:33:58;100501.19;;;3.27;68.34
46574;BME280;32299;53.366;-1.544;2023-01-27T04:36:26;100504.02;;;3.72;67.37
46574;BME280;32299;53.366;-1.544;2023-01-27T04:38:53;100501.35;;;3.87;67.89
46574;BME280;32299;53.366;-1.544;2023-01-27T04:41:20;100496.11;;;4.00;67.31
46574;BME280;32299;53.366;-1.544;2023-01-27T04:43:47;100489.40;;;4.48;66.24
46574;BME280;32299;53.366;-1.544;2023-01-27T04:46:14;100492.25;;;3.22;68.58
46574;BME280;32299;53.366;-1.544;2023-01-27T04:48:41;100493.72;;;3.31;67.02
46574;BME280;32299;53.366;-1.544;2023-01-27T04:51:08;100492.57;;;2.83;71.23
46574;BME280;32299;53.366;-1.544;2023-01-27T04:53:35;100497.99;;;2.63;69.50
46574;BME280;32299;53.366;-1.544;2023-01-27T04:56:05;100498.53;;;2.74;70.85
46574;BME280;32299;53.366;-1.544;2023-01-27T04:58:33;100499.74;;;4.00;68.49
46574;BME280;32299;53.366;-1.544;2023-01-27T05:01:00;100499.50;;;3.23;69.09
46574;BME280;32299;53.366;-1.544;2023-01-27T05:03:27;100494.80;;;3.60;68.33
46574;BME280;32299;53.366;-1.544;2023-01-27T05:05:54;100491.80;;;4.13;66.36
46574;BME280;32299;53.366;-1.544;2023-01-27T05:08:21;100494.43;;;4.30;66.91
46574;BME280;32299;53.366;-1.544;2023-01-27T05:10:48;100485.71;;;4.68;64.58
46574;BME280;32299;53.366;-1.544;2023-01-27T05:13:15;100488.50;;;3.87;66.75
46574;BME280;32299;53.366;-1.544;2023-01-27T05:15:42;100490.61;;;3.45;67.08
46574;BME280;32299;53.366;-1.544;2023-01-27T05:18:09;100485.54;;;4.52;64.72
46574;BME280;32299;53.366;-1.544;2023-01-27T05:20:36;100484.25;;;5.16;62.97
46574;BME280;32299;53.366;-1.544;2023-01-27T05:23:03;100488.12;;;4.20;66.23
46574;BME280;32299;53.366;-1.544;2023-01-27T05:25:30;100491.45;;;3.34;67.00
46574;BME280;32299;53.366;-1.544;2023-01-27T05:27:57;100488.97;;;4.90;63.77
46574;BME280;32299;53.366;-1.544;2023-01-27T05:30:24;100490.30;;;4.62;63.83
46574;BME280;32299;53.366;-1.544;2023-01-27T05:32:51;100488.27;;;4.88;63.62
46574;BME280;32299;53.366;-1.544;2023-01-27T05:35:19;100491.91;;;4.57;64.64
46574;BME280;32299;53.366;-1.544;2023-01-27T05:37:46;100495.92;;;4.36;64.21
46574;BME280;32299;53.366;-1.544;2023-01-27T05:40:13;100499.59;;;3.85;66.22
46574;BME280;32299;53.366;-1.544;2023-01-27T05:42:40;100496.74;;;4.13;65.54
46574;BME280;32299;53.366;-1.544;2023-01-27T05:45:08;100493.93;;;4.29;64.33
46574;BME280;32299;53.366;-1.544;2023-01-27T05:47:36;100492.51;;;5.36;61.02
46574;BME280;32299;53.366;-1.544;2023-01-27T05:50:03;100493.32;;;4.92;61.42
46574;BME280;32299;53.366;-1.544;2023-01-27T05:52:30;100495.70;;;3.92;63.33
46574;BME280;32299;53.366;-1.544;2023-01-27T05:54:57;100495.70;;;5.66;59.91
46574;BME280;32299;53.366;-1.544;2023-01-27T05:57:24;100495.19;;;5.65;59.76
46574;BME280;32299;53.366;-1.544;2023-01-27T05:59:51;100493.45;;;4.86;61.11
46574;BME280;32299;53.366;-1.544;2023-01-27T06:02:18;100496.09;;;4.73;61.28
46574;BME280;32299;53.366;-1.544;2023-01-27T06:04:45;100493.99;;;5.77;58.91
46574;BME280;32299;53.366;-1.544;2023-01-27T06:07:12;100498.53;;;4.21;62.61
46574;BME280;32299;53.366;-1.544;2023-01-27T06:09:39;100499.40;;;4.44;62.79
46574;BME280;32299;53.366;-1.544;2023-01-27T06:12:06;100502.98;;;4.72;60.86
46574;BME280;32299;53.366;-1.544;2023-01-27T06:14:33;100503.55;;;4.01;63.63
46574;BME280;32299;53.366;-1.544;2023-01-27T06:17:01;100503.24;;;5.32;59.63
46574;BME280;32299;53.366;-1.544;2023-01-27T06:19:28;100501.33;;;5.71;59.01
46574;BME280;32299;53.366;-1.544;2023-01-27T06:21:54;100505.08;;;4.04;63.03
46574;BME280;32299;53.366;-1.544;2023-01-27T06:24:21;100508.22;;;5.00;60.90
46574;BME280;32299;53.366;-1.544;2023-01-27T06:26:48;100503.18;;;4.45;62.75
46574;BME280;32299;53.366;-1.544;2023-01-27T06:29:16;100503.18;;;4.60;62.70
46574;BME280;32299;53.366;-1.544;2023-01-27T06:31:43;100501.36;;;3.71;64.40
46574;BME280;32299;53.366;-1.544;2023-01-27T06:34:09;100492.77;;;4.30;62.66
46574;BME280;32299;53.366;-1.544;2023-01-27T06:36:36;100492.39;;;4.94;61.53
46574;BME280;32299;53.366;-1.544;2023-01-27T06:39:04;100497.64;;;4.07;63.36
46574;BME280;32299;53.366;-1.544;2023-01-27T06:41:31;100498.57;;;4.66;62.05
46574;BME280;32299;53.366;-1.544;2023-01-27T06:43:58;100502.46;;;3.71;64.47
46574;BME280;32299;53.366;-1.544;2023-01-27T06:46:25;100501.97;;;4.10;63.07
46574;BME280;32299;53.366;-1.544;2023-01-27T06:48:52;100503.36;;;5.08;60.41
46574;BME280;32299;53.366;-1.544;2023-01-27T06:51:20;100508.14;;;4.60;60.73
46574;BME280;32299;53.366;-1.544;2023-01-27T06:53:47;100511.44;;;3.81;63.27
46574;BME280;32299;53.366;-1.544;2023-01-27T06:56:14;100514.83;;;4.64;61.78
46574;BME280;32299;53.366;-1.544;2023-01-27T06:58:41;100518.49;;;3.82;64.39
46574;BME280;32299;53.366;-1.544;2023-01-27T07:01:08;100519.06;;;3.94;65.11
46574;BME280;32299;53.366;-1.544;2023-01-27T07:03:35;100520.18;;;3.62;65.13
46574;BME280;32299;53.366;-1.544;2023-01-27T07:06:02;100515.47;;;3.99;64.38
46574;BME280;32299;53.366;-1.544;2023-01-27T07:08:29;100510.60;;;3.59;65.75
46574;BME280;32299;53.366;-1.544;2023-01-27T07:10:56;100512.55;;;3.49;65.23
46574;BME280;32299;53.366;-1.544;2023-01-27T07:13:23;100512.92;;;4.13;62.89
46574;BME280;32299;53.366;-1.544;2023-01-27T07:15:53;100507.35;;;3.99;65.12
46574;BME280;32299;53.366;-1.544;2023-01-27T07:18:21;100507.83;;;4.16;64.07
46574;BME280;32299;53.366;-1.544;2023-01-27T07:20:47;100512.38;;;2.81;67.84
46574;BME280;32299;53.366;-1.544;2023-01-27T07:23:14;100509.24;;;3.22;66.27
46574;BME280;32299;53.366;-1.544;2023-01-27T07:25:41;100510.18;;;4.23;63.82
46574;BME280;32299;53.366;-1.544;2023-01-27T07:28:08;100513.83;;;3.51;65.82
46574;BME280;32299;53.366;-1.544;2023-01-27T07:30:35;100511.84;;;4.80;62.07
46574;BME280;32299;53.366;-1.544;2023-01-27T07:33:03;100518.26;;;4.21;63.20
46574;BME280;32299;53.366;-1.544;2023-01-27T07:35:30;100522.49;;;4.17;62.37
46574;BME280;32299;53.366;-1.544;2023-01-27T07:37:58;100527.17;;;3.37;64.17
46574;BME280;32299;53.366;-1.544;2023-01-27T07:40:25;100517.09;;;4.40;62.06
46574;BME280;32299;53.366;-1.544;2023-01-27T07:42:52;100516.45;;;4.89;60.98
46574;BME280;32299;53.366;-1.544;2023-01-27T07:45:19;100523.78;;;3.30;65.42
46574;BME280;32299;53.366;-1.544;2023-01-27T07:47:46;100528.93;;;3.73;64.46
46574;BME280;32299;53.366;-1.544;2023-01-27T07:50:13;100533.21;;;3.38;64.33
46574;BME280;32299;53.366;-1.544;2023-01-27T07:52:40;100532.90;;;4.38;61.55
46574;BME280;32299;53.366;-1.544;2023-01-27T07:55:08;100540.44;;;3.16;66.00
46574;BME280;32299;53.366;-1.544;2023-01-27T07:57:34;100538.61;;;2.95;63.91
46574;BME280;32299;53.366;-1.544;2023-01-27T08:00:02;100537.56;;;4.41;61.03
46574;BME280;32299;53.366;-1.544;2023-01-27T08:02:29;100542.45;;;4.49;60.97
46574;BME280;32299;53.366;-1.544;2023-01-27T08:04:56;100538.76;;;4.12;61.99
46574;BME280;32299;53.366;-1.544;2023-01-27T08:07:23;100541.05;;;4.16;61.40
46574;BME280;32299;53.366;-1.544;2023-01-27T08:09:50;100543.01;;;4.29;61.18
46574;BME280;32299;53.366;-1.544;2023-01-27T08:12:17;100552.32;;;2.69;64.85
46574;BME280;32299;53.366;-1.544;2023-01-27T08:14:44;100550.03;;;4.26;61.54
46574;BME280;32299;53.366;-1.544;2023-01-27T08:17:11;100553.73;;;5.03;59.38
46574;BME280;32299;53.366;-1.544;2023-01-27T08:19:38;100553.73;;;4.30;61.99
46574;BME280;32299;53.366;-1.544;2023-01-27T08:22:05;100558.68;;;4.36;61.78
46574;BME280;32299;53.366;-1.544;2023-01-27T08:24:32;100565.47;;;4.30;61.53
46574;BME280;32299;53.366;-1.544;2023-01-27T08:26:59;100568.61;;;2.75;65.10
46574;BME280;32299;53.366;-1.544;2023-01-27T08:29:26;100564.50;;;3.87;61.89
46574;BME280;32299;53.366;-1.544;2023-01-27T08:31:53;100573.12;;;3.08;64.61
46574;BME280;32299;53.366;-1.544;2023-01-27T08:34:20;100572.14;;;3.35;63.75
46574;BME280;32299;53.366;-1.544;2023-01-27T08:36:47;100572.74;;;3.78;62.91
46574;BME280;32299;53.366;-1.544;2023-01-27T08:39:14;100573.74;;;4.14;61.17
46574;BME280;32299;53.366;-1.544;2023-01-27T08:41:41;100579.23;;;4.02;60.26
46574;BME280;32299;53.366;-1.544;2023-01-27T08:44:08;100582.65;;;5.09;58.59
46574;BME280;32299;53.366;-1.544;2023-01-27T08:46:35;100585.83;;;4.80;58.79
46574;BME280;32299;53.366;-1.544;2023-01-27T08:49:02;100590.28;;;5.40;58.30
46574;BME280;32299;53.366;-1.544;2023-01-27T08:51:29;100585.12;;;4.19;60.60
46574;BME280;32299;53.366;-1.544;2023-01-27T08:53:57;100586.16;;;4.07;62.31
46574;BME280;32299;53.366;-1.544;2023-01-27T08:56:25;100587.85;;;5.48;58.34
46574;BME280;32299;53.366;-1.544;2023-01-27T08:58:52;100598.05;;;4.04;61.00
46574;BME280;32299;53.366;-1.544;2023-01-27T09:01:20;100587.16;;;5.11;59.28
46574;BME280;32299;53.366;-1.544;2023-01-27T09:03:47;100592.51;;;4.58;60.38
46574;BME280;32299;53.366;-1.544;2023-01-27T09:06:15;100592.64;;;5.63;58.33
46574;BME280;32299;53.366;-1.544;2023-01-27T09:08:44;100595.35;;;4.58;60.97
46574;BME280;32299;53.366;-1.544;2023-01-27T09:11:12;100597.64;;;4.85;59.45
46574;BME280;32299;53.366;-1.544;2023-01-27T09:13:41;100597.46;;;5.45;58.67
46574;BME280;32299;53.366;-1.544;2023-01-27T09:16:08;100598.94;;;5.30;59.03
46574;BME280;32299;53.366;-1.544;2023-01-27T09:18:36;100602.67;;;5.73;58.58
46574;BME280;32299;53.366;-1.544;2023-01-27T09:21:04;100601.92;;;5.91;57.60
46574;BME280;32299;53.366;-1.544;2023-01-27T09:23:32;100600.70;;;5.63;57.48
46574;BME280;32299;53.366;-1.544;2023-01-27T09:25:59;100605.28;;;5.37;58.00
46574;BME280;32299;53.366;-1.544;2023-01-27T09:28:26;100609.40;;;4.59;59.03
46574;BME280;32299;53.366;-1.544;2023-01-27T09:30:56;100606.33;;;5.07;59.19
46574;BME280;32299;53.366;-1.544;2023-01-27T09:33:23;100606.36;;;5.04;58.30
46574;BME280;32299;53.366;-1.544;2023-01-27T09:35:56;100611.75;;;5.58;57.94
46574;BME280;32299;53.366;-1.544;2023-01-27T09:38:28;100610.47;;;5.53;58.22
46574;BME280;32299;53.366;-1.544;2023-01-27T09:41:13;100604.11;;;5.04;58.74
46574;BME280;32299;53.366;-1.544;2023-01-27T09:44:00;100607.01;;;3.96;60.66
46574;BME280;32299;53.366;-1.544;2023-01-27T09:46:45;100603.43;;;4.63;61.05
46574;BME280;32299;53.366;-1.544;2023-01-27T09:49:27;100605.65;;;5.18;59.01
46574;BME280;32299;53.366;-1.544;2023-01-27T09:52:12;100611.88;;;3.61;61.92
46574;BME280;32299;53.366;-1.544;2023-01-27T09:54:54;100599.88;;;5.43;59.03
46574;BME280;32299;53.366;-1.544;2023-01-27T09:57:32;100599.85;;;4.50;60.04
46574;BME280;32299;53.366;-1.544;2023-01-27T10:00:13;100597.02;;;4.96;58.21
46574;BME280;32299;53.366;-1.544;2023-01-27T10:03:04;100599.11;;;4.54;59.43
46574;BME280;32299;53.366;-1.544;2023-01-27T10:05:45;100596.72;;;5.55;57.51
46574;BME280;32299;53.366;-1.544;2023-01-27T10:08:28;100606.65;;;3.88;61.37
46574;BME280;32299;53.366;-1.544;2023-01-27T10:11:06;100609.97;;;4.42;60.48
46574;BME280;32299;53.366;-1.544;2023-01-27T10:13:43;100598.99;;;4.84;59.02
46574;BME280;32299;53.366;-1.544;2023-01-27T10:16:32;100601.57;;;5.62;57.08
46574;BME280;32299;53.366;-1.544;2023-01-27T10:19:13;100602.37;;;6.03;56.57
46574;BME280;32299;53.366;-1.544;2023-01-27T10:21:49;100603.18;;;5.20;57.66
46574;BME280;32299;53.366;-1.544;2023-01-27T10:24:31;100606.86;;;3.25;61.51
46574;BME280;32299;53.366;-1.544;2023-01-27T10:27:06;100600.70;;;5.23;58.98
46574;BME280;32299;53.366;-1.544;2023-01-27T10:29:43;100605.16;;;5.07;57.49
46574;BME280;32299;53.366;-1.544;2023-01-27T10:32:18;100610.87;;;5.05;59.26
46574;BME280;32299;53.366;-1.544;2023-01-27T10:34:54;100606.13;;;5.36;57.52
46574;BME280;32299;53.366;-1.544;2023-01-27T10:37:30;100604.89;;;4.00;60.74
46574;BME280;32299;53.366;-1.544;2023-01-27T10:40:04;100604.48;;;5.49;58.21
46574;BME280;32299;53.366;-1.544;2023-01-27T10:42:39;100603.16;;;4.94;58.39
46574;BME280;32299;53.366;-1.544;2023-01-27T10:45:20;100601.54;;;5.76;57.00
46574;BME280;32299;53.366;-1.544;2023-01-27T10:48:20;100601.37;;;5.47;56.51
46574;BME280;32299;53.366;-1.544;2023-01-27T10:50:53;100600.93;;;5.30;56.41
46574;BME280;32299;53.366;-1.544;2023-01-27T10:53:27;100595.75;;;5.77;55.68
46574;BME280;32299;53.366;-1.544;2023-01-27T10:56:01;100592.88;;;5.53;55.88
46574;BME280;32299;53.366;-1.544;2023-01-27T10:58:40;100592.41;;;5.43;55.93
46574;BME280;32299;53.366;-1.544;2023-01-27T11:01:10;100598.70;;;5.46;57.14
46574;BME280;32299;53.366;-1.544;2023-01-27T11:03:40;100594.68;;;4.97;57.56
46574;BME280;32299;53.366;-1.544;2023-01-27T11:06:13;100595.47;;;5.65;56.29
46574;BME280;32299;53.366;-1.544;2023-01-27T11:08:44;100596.63;;;4.58;57.98
46574;BME280;32299;53.366;-1.544;2023-01-27T11:11:13;100593.17;;;5.77;55.99
46574;BME280;32299;53.366;-1.544;2023-01-27T11:13:41;100592.77;;;4.70;58.76
46574;BME280;32299;53.366;-1.544;2023-01-27T11:16:13;100594.89;;;5.68;57.47
46574;BME280;32299;53.366;-1.544;2023-01-27T11:18:42;100588.40;;;5.04;57.77
46574;BME280;32299;53.366;-1.544;2023-01-27T11:21:14;100590.29;;;4.94;57.36
46574;BME280;32299;53.366;-1.544;2023-01-27T11:23:45;100591.85;;;4.35;57.81
46574;BME280;32299;53.366;-1.544;2023-01-27T11:26:22;100596.33;;;3.95;59.07
46574;BME280;32299;53.366;-1.544;2023-01-27T11:28:54;100590.98;;;4.08;57.36
46574;BME280;32299;53.366;-1.544;2023-01-27T11:31:33;100585.65;;;5.25;55.52
46574;BME280;32299;53.366;-1.544;2023-01-27T11:34:06;100576.24;;;5.82;55.98
46574;BME280;32299;53.366;-1.544;2023-01-27T11:36:36;100573.17;;;5.16;56.00
46574;BME280;32299;53.366;-1.544;2023-01-27T11:39:03;100571.29;;;4.33;57.50
46574;BME280;32299;53.366;-1.544;2023-01-27T11:41:31;100571.98;;;4.33;56.05
46574;BME280;32299;53.366;-1.544;2023-01-27T11:44:03;100565.05;;;5.87;54.21
46574;BME280;32299;53.366;-1.544;2023-01-27T11:46:33;100560.44;;;5.15;54.25
46574;BME280;32299;53.366;-1.544;2023-01-27T11:49:01;100551.22;;;4.50;53.99
46574;BME280;32299;53.366;-1.544;2023-01-27T11:51:35;100550.39;;;5.69;54.08
46574;BME280;32299;53.366;-1.544;2023-01-27T11:54:10;100549.84;;;4.66;54.61
46574;BME280;32299;53.366;-1.544;2023-01-27T11:56:42;100547.07;;;4.99;54.48
46574;BME280;32299;53.366;-1.544;2023-01-27T11:59:15;100545.48;;;5.30;55.00
46574;BME280;32299;53.366;-1.544;2023-01-27T12:01:46;100539.85;;;5.97;52.29
46574;BME280;32299;53.366;-1.544;2023-01-27T12:04:21;100537.62;;;6.01;52.73
46574;BME280;32299;53.366;-1.544;2023-01-27T12:06:53;100533.25;;;6.19;52.93
46574;BME280;32299;53.366;-1.544;2023-01-27T12:09:38;100533.49;;;6.09;51.22
46574;BME280;32299;53.366;-1.544;2023-01-27T12:12:17;100533.01;;;6.03;51.37
46574;BME280;32299;53.366;-1.544;2023-01-27T12:14:47;100525.87;;;6.34;51.82
46574;BME280;32299;53.366;-1.544;2023-01-27T12:17:21;100518.16;;;6.89;49.80
46574;BME280;32299;53.366;-1.544;2023-01-27T12:19:51;100517.63;;;6.22;52.60
46574;BME280;32299;53.366;-1.544;2023-01-27T12:22:25;100517.29;;;6.50;50.41
46574;BME280;32299;53.366;-1.544;2023-01-27T12:24:55;100518.69;;;6.32;49.99
46574;BME280;32299;53.366;-1.544;2023-01-27T12:27:27;100520.79;;;5.29;51.48
46574;BME280;32299;53.366;-1.544;2023-01-27T12:29:59;100517.12;;;6.47;50.05
46574;BME280;32299;53.366;-1.544;2023-01-27T12:32:36;100511.60;;;6.41;50.47
46574;BME280;32299;53.366;-1.544;2023-01-27T12:35:16;100511.54;;;6.74;49.90
46574;BME280;32299;53.366;-1.544;2023-01-27T12:37:45;100511.78;;;7.16;48.13
46574;BME280;32299;53.366;-1.544;2023-01-27T12:40:18;100510.83;;;7.07;47.73
46574;BME280;32299;53.366;-1.544;2023-01-27T12:42:48;100502.97;;;7.02;48.22
46574;BME280;32299;53.366;-1.544;2023-01-27T12:45:19;100501.26;;;6.58;48.98
46574;BME280;32299;53.366;-1.544;2023-01-27T12:48:17;100501.55;;;6.24;49.61
46574;BME280;32299;53.366;-1.544;2023-01-27T12:50:54;100501.11;;;6.85;49.69
46574;BME280;32299;53.366;-1.544;2023-01-27T12:53:24;100498.21;;;6.52;49.33
46574;BME280;32299;53.366;-1.544;2023-01-27T12:55:57;100496.05;;;7.29;48.87
46574;BME280;32299;53.366;-1.544;2023-01-27T12:58:43;100496.57;;;6.89;49.67
46574;BME280;32299;53.366;-1.544;2023-01-27T13:01:23;100490.11;;;5.58;50.56